Time;durP1;ratioP1;P1;durP2;ratioP2;P2;SDS_P1;SDS_P2;PMS_P1;PMS_P2;Temp;Humidity;BMP_temperature;BMP_pressure;BME280_temperature;BME280_humidity;BME280_pressure;Samples;Min_cycle;Max_cycle;Signal;HPM_P1;HPM_P2
2022/06/06 00:01:46;;;;;;;0.13;0.13;;;17.70;82.10;;;;;;5042337;28;20029;-74
2022/06/06 00:04:14;;;;;;;0.30;0.08;;;17.70;81.70;;;;;;5038324;28;20028;-73
2022/06/06 00:06:43;;;;;;;1.88;0.10;;;17.80;79.80;;;;;;5037051;28;20112;-74
2022/06/06 00:09:12;;;;;;;0.28;0.10;;;17.80;79.80;;;;;;5037689;28;20487;-74
2022/06/06 00:11:40;;;;;;;0.05;0.00;;;17.70;80.10;;;;;;5048208;28;20036;-75
2022/06/06 00:14:09;;;;;;;0.10;0.10;;;18.00;80.10;;;;;;5048698;28;20037;-76
2022/06/06 00:16:36;;;;;;;0.10;0.00;;;18.60;79.40;;;;;;5038125;28;20029;-77
2022/06/06 00:19:05;;;;;;;0.10;0.10;;;18.80;78.30;;;;;;5040661;28;20051;-78
2022/06/06 00:21:34;;;;;;;0.20;0.10;;;19.00;77.70;;;;;;5037270;28;20091;-80
2022/06/06 00:24:01;;;;;;;0.30;0.10;;;18.70;76.80;;;;;;5030536;28;20029;-78
2022/06/06 00:26:31;;;;;;;1.38;0.10;;;18.70;77.20;;;;;;5032768;28;20022;-74
2022/06/06 00:28:59;;;;;;;0.00;0.00;;;18.90;77.30;;;;;;5035650;28;20110;-76
2022/06/06 00:37:12;;;;;;;0.10;0.10;;;19.20;76.50;;;;;;5035553;28;20075;-74
2022/06/06 00:39:41;;;;;;;0.10;0.00;;;19.50;76.20;;;;;;5041403;28;20043;-75
2022/06/06 00:42:30;;;;;;;0.00;0.00;;;19.30;75.30;;;;;;5031996;28;20492;-76
2022/06/06 00:45:31;;;;;;;0.00;0.00;;;19.60;75.60;;;;;;5028280;28;20048;-80
2022/06/06 00:48:20;;;;;;;0.20;0.10;;;19.80;75.20;;;;;;5030024;28;20021;-76
2022/06/06 00:50:50;;;;;;;0.00;0.00;;;20.60;75.70;;;;;;5029278;28;20038;-78
2022/06/06 00:53:33;;;;;;;1.45;0.00;;;21.50;73.70;;;;;;5042111;28;20040;-79
2022/06/06 00:56:24;;;;;;;0.30;0.10;;;21.50;73.30;;;;;;5029255;28;20029;-79
2022/06/06 00:58:54;;;;;;;0.00;0.00;;;20.90;73.10;;;;;;5033186;28;20390;-77
2022/06/06 01:01:23;;;;;;;0.05;0.00;;;20.80;74.20;;;;;;5040235;28;20723;-75
2022/06/06 01:03:59;;;;;;;0.20;0.10;;;21.00;72.60;;;;;;5046896;28;20056;-73
2022/06/06 01:06:30;;;;;;;0.00;0.00;;;21.00;72.80;;;;;;5049123;28;20048;-77
2022/06/06 01:08:58;;;;;;;0.00;0.00;;;20.40;73.20;;;;;;5045459;28;20361;-74
2022/06/06 01:11:26;;;;;;;0.03;0.00;;;19.80;74.60;;;;;;5039753;28;20035;-72
2022/06/06 01:13:56;;;;;;;0.10;0.10;;;19.90;73.70;;;;;;5051925;28;20041;-75
2022/06/06 01:16:35;;;;;;;0.57;0.05;;;19.70;75.10;;;;;;5037159;28;20396;-74
2022/06/06 01:19:23;;;;;;;0.20;0.10;;;19.30;74.30;;;;;;5043645;28;20041;-75
2022/06/06 01:22:03;;;;;;;0.20;0.10;;;19.50;74.60;;;;;;5034288;28;20029;-78
2022/06/06 01:24:48;;;;;;;0.15;0.10;;;19.70;75.30;;;;;;5037467;28;20033;-74
2022/06/06 01:27:24;;;;;;;0.40;0.10;;;20.40;73.80;;;;;;5039029;28;20467;-78
2022/06/06 01:29:58;;;;;;;0.10;0.10;;;20.70;72.50;;;;;;5046034;28;20095;-75
2022/06/06 01:32:27;;;;;;;0.75;0.10;;;20.90;73.40;;;;;;5053321;28;20420;-76
2022/06/06 01:34:55;;;;;;;0.13;0.13;;;20.90;71.20;;;;;;5036740;28;20021;-74
2022/06/06 01:37:24;;;;;;;0.10;0.10;;;20.40;72.90;;;;;;5050946;28;20041;-75
2022/06/06 01:39:52;;;;;;;0.08;0.08;;;21.00;73.20;;;;;;5041873;28;20029;-75
2022/06/06 01:42:44;;;;;;;0.68;0.10;;;21.30;73.60;;;;;;5051372;28;20760;-76
2022/06/06 01:45:30;;;;;;;0.28;0.10;;;21.10;71.00;;;;;;5034890;28;20026;-72
2022/06/06 01:48:23;;;;;;;0.10;0.10;;;21.60;72.60;;;;;;5033085;28;20108;-77
2022/06/06 01:50:51;;;;;;;0.38;0.10;;;21.80;71.40;;;;;;5032467;28;20111;-76
2022/06/06 01:53:21;;;;;;;2.17;0.17;;;21.10;71.50;;;;;;5047039;28;20025;-76
2022/06/06 01:55:51;;;;;;;1.38;0.10;;;21.00;72.20;;;;;;5050297;28;20048;-74
2022/06/06 01:58:23;;;;;;;1.67;0.10;;;21.30;70.90;;;;;;5051183;28;20507;-74
2022/06/06 02:00:51;;;;;;;0.57;0.10;;;21.30;70.80;;;;;;5051578;28;20032;-73
2022/06/06 02:03:19;;;;;;;0.10;0.10;;;21.30;71.90;;;;;;5039195;28;20032;-73
2022/06/06 02:05:46;;;;;;;0.32;0.32;;;21.50;70.90;;;;;;5050915;28;20033;-76
2022/06/06 02:08:15;;;;;;;0.00;0.00;;;21.60;72.00;;;;;;5048277;28;20111;-75
2022/06/06 02:10:44;;;;;;;0.00;0.00;;;22.30;71.20;;;;;;5043679;28;20037;-73
2022/06/06 02:13:11;;;;;;;0.10;0.10;;;22.80;70.50;;;;;;5031403;28;20030;-75
2022/06/06 02:15:39;;;;;;;0.22;0.10;;;23.50;70.80;;;;;;5050547;28;20025;-75
2022/06/06 02:18:06;;;;;;;0.40;0.10;;;23.40;68.80;;;;;;5046929;28;20119;-77
2022/06/06 02:20:34;;;;;;;0.00;0.00;;;22.90;69.70;;;;;;5042685;28;20162;-76
2022/06/06 02:23:03;;;;;;;0.77;0.00;;;23.00;70.20;;;;;;5032766;28;20536;-74
2022/06/06 02:25:32;;;;;;;0.55;0.10;;;23.30;69.50;;;;;;5032144;28;20053;-73
2022/06/06 02:28:01;;;;;;;0.20;0.10;;;22.90;69.70;;;;;;5044922;28;20060;-74
2022/06/06 02:30:31;;;;;;;0.20;0.10;;;23.50;71.10;;;;;;5048267;28;20039;-74
2022/06/06 02:32:59;;;;;;;0.13;0.10;;;23.10;69.30;;;;;;5031420;28;20404;-72
2022/06/06 02:35:29;;;;;;;0.10;0.10;;;22.90;69.50;;;;;;5047686;28;20029;-74
2022/06/06 02:37:57;;;;;;;0.10;0.10;;;22.70;69.50;;;;;;5038850;28;20196;-72
2022/06/06 02:40:27;;;;;;;3.13;0.03;;;21.90;70.60;;;;;;5045911;28;20032;-73
2022/06/06 02:42:54;;;;;;;0.00;0.00;;;21.70;71.80;;;;;;5050663;28;20057;-74
2022/06/06 02:45:22;;;;;;;0.55;0.10;;;21.90;71.20;;;;;;5049482;28;20458;-72
2022/06/06 02:47:55;;;;;;;0.57;0.10;;;21.90;71.30;;;;;;5051800;28;20021;-75
2022/06/06 02:50:26;;;;;;;0.38;0.10;;;21.40;70.70;;;;;;5050393;28;20102;-75
2022/06/06 02:52:54;;;;;;;0.13;0.10;;;20.50;72.30;;;;;;5035274;28;20033;-74
2022/06/06 02:55:21;;;;;;;0.17;0.10;;;20.20;72.60;;;;;;5030806;28;20038;-74
2022/06/06 02:57:51;;;;;;;0.05;0.00;;;20.20;73.80;;;;;;5051181;28;20041;-75
2022/06/06 03:00:28;;;;;;;0.35;0.10;;;20.70;73.20;;;;;;5047639;28;20017;-75
2022/06/06 03:02:56;;;;;;;0.20;0.20;;;19.90;73.60;;;;;;5038264;28;20105;-74
2022/06/06 03:05:53;;;;;;;0.47;0.10;;;20.30;74.50;;;;;;5033008;28;20083;-76
2022/06/06 03:08:38;;;;;;;0.00;0.00;;;20.10;73.40;;;;;;5037715;28;20063;-74
2022/06/06 03:11:23;;;;;;;0.00;0.00;;;19.40;73.70;;;;;;5049200;28;20037;-74
2022/06/06 03:13:56;;;;;;;0.00;0.00;;;19.40;75.50;;;;;;5045156;28;20136;-73
2022/06/06 03:22:44;;;;;;;;;;;18.90;75.10;;;;;;5036984;28;20067;-76
2022/06/06 03:25:22;;;;;;;;;;;18.50;75.80;;;;;;5037905;28;19909;-78
2022/06/06 03:28:06;;;;;;;0.28;0.08;;;18.40;75.60;;;;;;5031386;28;19916;-76
2022/06/06 03:31:04;;;;;;;0.05;0.00;;;18.40;75.00;;;;;;5051823;28;20136;-76
2022/06/06 03:33:56;;;;;;;0.00;0.00;;;17.80;77.10;;;;;;5042440;28;20052;-76
2022/06/06 03:36:29;;;;;;;0.35;0.10;;;17.70;77.00;;;;;;5049250;28;20021;-77
2022/06/06 03:39:12;;;;;;;0.13;0.08;;;17.60;77.20;;;;;;5037088;28;20063;-74
2022/06/06 03:42:07;;;;;;;0.10;0.03;;;17.50;77.50;;;;;;5047102;28;20104;-76
2022/06/06 03:44:38;;;;;;;0.10;0.10;;;17.30;77.10;;;;;;5041973;28;20044;-76
2022/06/06 03:47:36;;;;;;;1.38;0.00;;;17.10;78.80;;;;;;5030434;28;20044;-78
2022/06/06 03:50:21;;;;;;;0.00;0.00;;;17.10;79.30;;;;;;5043785;28;20053;-76
2022/06/06 03:52:50;;;;;;;0.10;0.10;;;16.90;78.30;;;;;;5032349;28;20021;-74
2022/06/06 03:55:37;;;;;;;0.80;0.10;;;16.90;79.50;;;;;;5031547;28;20381;-75
2022/06/06 03:58:05;;;;;;;0.10;0.00;;;16.90;78.40;;;;;;5030376;28;20038;-75
2022/06/06 04:00:35;;;;;;;0.10;0.10;;;16.80;77.40;;;;;;5037069;28;20332;-75
2022/06/06 04:03:05;;;;;;;0.00;0.00;;;16.80;77.40;;;;;;5037384;28;20029;-76
2022/06/06 04:05:36;;;;;;;0.00;0.00;;;16.80;78.00;;;;;;5030642;28;20029;-74
2022/06/06 04:08:05;;;;;;;1.45;0.10;;;16.80;77.90;;;;;;5030735;28;20037;-76
2022/06/06 04:10:52;;;;;;;0.03;0.03;;;16.80;76.60;;;;;;5048671;28;20021;-75
2022/06/06 04:13:54;;;;;;;0.05;0.00;;;16.80;77.30;;;;;;5035216;28;20029;-76
2022/06/06 04:16:33;;;;;;;0.00;0.00;;;16.70;77.10;;;;;;5035096;28;20060;-76
2022/06/06 04:19:12;;;;;;;0.00;0.00;;;16.70;77.00;;;;;;5044167;28;20037;-74
2022/06/06 04:21:57;;;;;;;0.32;0.10;;;16.60;77.30;;;;;;5048348;28;20037;-76
2022/06/06 04:24:44;;;;;;;0.08;0.00;;;16.50;77.10;;;;;;5036937;28;20122;-74
2022/06/06 04:27:14;;;;;;;0.20;0.17;;;16.40;76.80;;;;;;5050443;28;20109;-76
2022/06/06 04:30:09;;;;;;;0.00;0.00;;;16.50;76.10;;;;;;5043689;28;20037;-75
2022/06/06 04:32:46;;;;;;;0.20;0.20;;;16.40;76.50;;;;;;5030819;28;20411;-75
2022/06/06 04:35:40;;;;;;;0.10;0.10;;;16.40;76.90;;;;;;5044692;28;20036;-76
2022/06/06 04:38:33;;;;;;;0.57;0.20;;;16.40;76.70;;;;;;5029489;28;20029;-78
2022/06/06 04:41:38;;;;;;;0.10;0.10;;;16.40;76.50;;;;;;5037023;28;20027;-76
2022/06/06 04:44:32;;;;;;;0.22;0.10;;;16.40;74.80;;;;;;5049217;28;20361;-84
2022/06/06 04:47:25;;;;;;;0.10;0.10;;;16.40;74.50;;;;;;5051529;28;20496;-83
2022/06/06 04:49:54;;;;;;;0.70;0.40;;;16.40;75.00;;;;;;5049093;28;20053;-86
2022/06/06 04:52:23;;;;;;;0.45;0.10;;;16.40;75.30;;;;;;5045426;28;20025;-81
2022/06/06 04:54:52;;;;;;;0.00;0.00;;;16.40;75.10;;;;;;5052003;28;20555;-88
2022/06/06 04:57:20;;;;;;;0.20;0.08;;;16.40;73.60;;;;;;5053706;28;20079;-87
2022/06/06 04:59:48;;;;;;;0.10;0.10;;;16.40;74.30;;;;;;5053178;28;20036;-85
2022/06/06 05:02:16;;;;;;;0.00;0.00;;;16.40;73.50;;;;;;5054874;28;20052;-86
2022/06/06 05:04:43;;;;;;;0.32;0.10;;;16.40;75.20;;;;;;5043541;28;20480;-78
2022/06/06 05:07:21;;;;;;;0.05;0.00;;;16.40;75.10;;;;;;5038211;28;20029;-82
2022/06/06 05:10:12;;;;;;;0.52;0.00;;;16.40;72.90;;;;;;5039162;28;20463;-79
2022/06/06 05:12:50;;;;;;;0.03;0.00;;;16.30;72.90;;;;;;5049070;28;20111;-75
2022/06/06 05:15:46;;;;;;;0.00;0.00;;;16.30;72.90;;;;;;5045066;28;20025;-84
2022/06/06 05:18:38;;;;;;;0.10;0.00;;;16.30;73.00;;;;;;5049769;28;20357;-87
2022/06/06 05:21:11;;;;;;;0.10;0.10;;;16.30;73.30;;;;;;5034149;28;20527;-81
2022/06/06 05:23:57;;;;;;;0.00;0.00;;;16.20;72.90;;;;;;5034414;28;20025;-82
2022/06/06 05:26:42;;;;;;;0.00;0.00;;;16.20;73.80;;;;;;5036541;28;20020;-84
2022/06/06 05:29:34;;;;;;;0.10;0.10;;;16.20;73.80;;;;;;5046204;28;20732;-85
2022/06/06 05:32:19;;;;;;;0.17;0.10;;;16.20;73.30;;;;;;5049767;28;20033;-83
2022/06/06 05:35:09;;;;;;;0.15;0.08;;;16.10;73.00;;;;;;5047398;28;20037;-82
2022/06/06 05:37:37;;;;;;;0.63;0.20;;;16.20;73.20;;;;;;5047604;28;20045;-79
2022/06/06 05:40:16;;;;;;;0.25;0.20;;;16.10;73.10;;;;;;5051120;28;20103;-83
2022/06/06 05:43:25;;;;;;;0.55;0.10;;;16.10;73.30;;;;;;5034501;28;20120;-83
2022/06/06 05:46:10;;;;;;;0.00;0.00;;;16.10;73.20;;;;;;5047975;28;20029;-82
2022/06/06 05:49:04;;;;;;;0.10;0.10;;;16.10;73.10;;;;;;5040102;28;20110;-85
2022/06/06 05:51:59;;;;;;;0.38;0.05;;;16.00;73.30;;;;;;5043479;28;20353;-82
2022/06/06 05:54:39;;;;;;;0.00;0.00;;;16.00;73.20;;;;;;5040671;28;20086;-77
2022/06/06 05:57:51;;;;;;;0.25;0.10;;;15.90;73.80;;;;;;5033015;28;20117;-78
2022/06/06 06:01:06;;;;;;;0.10;0.00;;;16.00;72.40;;;;;;5030052;28;20044;-80
2022/06/06 06:03:52;;;;;;;0.10;0.10;;;16.00;72.90;;;;;;5036387;28;20025;-79
2022/06/06 06:06:42;;;;;;;0.10;0.10;;;15.90;73.10;;;;;;5040312;28;20075;-80
2022/06/06 06:09:36;;;;;;;0.05;0.05;;;15.90;73.30;;;;;;5039260;28;20297;-85
2022/06/06 06:12:19;;;;;;;0.00;0.00;;;15.90;72.90;;;;;;5044504;28;20341;-83
2022/06/06 06:15:01;;;;;;;0.43;0.08;;;16.00;73.30;;;;;;5043580;28;20037;-82
2022/06/06 06:17:31;;;;;;;0.17;0.00;;;16.00;73.40;;;;;;5043848;28;20071;-81
2022/06/06 06:20:15;;;;;;;0.98;0.15;;;16.00;73.00;;;;;;5048594;28;20025;-79
2022/06/06 06:23:00;;;;;;;0.85;0.10;;;15.90;73.30;;;;;;5052644;28;20036;-80
2022/06/06 06:25:28;;;;;;;0.25;0.17;;;15.80;73.40;;;;;;5052334;28;20032;-82
2022/06/06 06:28:03;;;;;;;0.30;0.00;;;15.60;73.80;;;;;;5048199;28;20025;-83
2022/06/06 06:30:56;;;;;;;0.17;0.10;;;15.50;73.90;;;;;;5047610;28;20024;-84
2022/06/06 06:33:56;;;;;;;0.40;0.20;;;15.40;74.60;;;;;;5039670;28;20036;-84
2022/06/06 06:36:41;;;;;;;0.65;0.13;;;15.20;74.90;;;;;;5035846;28;20033;-77
2022/06/06 06:39:13;;;;;;;0.10;0.10;;;15.10;76.00;;;;;;5038882;28;20458;-82
2022/06/06 06:42:12;;;;;;;0.73;0.20;;;14.90;75.70;;;;;;5051231;28;20039;-81
2022/06/06 06:44:51;;;;;;;0.60;0.38;;;14.70;75.80;;;;;;5041679;28;20025;-84
2022/06/06 06:47:26;;;;;;;0.03;0.03;;;14.70;76.20;;;;;;5048191;28;20361;-82
2022/06/06 06:50:39;;;;;;;0.50;0.13;;;14.60;76.30;;;;;;5032775;28;20518;-82
2022/06/06 06:53:30;;;;;;;0.13;0.10;;;14.50;76.70;;;;;;5031283;28;20041;-84
2022/06/06 06:56:16;;;;;;;1.45;0.22;;;14.40;77.20;;;;;;5038288;28;20423;-82
2022/06/06 06:58:54;;;;;;;0.55;0.25;;;14.30;77.80;;;;;;5048865;28;20045;-82
2022/06/06 07:11:12;;;;;;;0.50;0.40;;;13.80;79.40;;;;;;5032041;28;20111;-84
2022/06/06 07:14:00;;;;;;;0.75;0.30;;;13.70;79.70;;;;;;5030900;28;20035;-80
2022/06/06 07:16:30;;;;;;;3.70;0.70;;;13.60;80.10;;;;;;5034716;28;20040;-78
2022/06/06 07:19:20;;;;;;;1.13;0.45;;;13.50;80.50;;;;;;5040035;28;20045;-82
2022/06/06 07:21:50;;;;;;;0.28;0.20;;;13.50;80.70;;;;;;5034500;28;20119;-80
2022/06/06 07:24:20;;;;;;;0.95;0.30;;;13.50;80.50;;;;;;5032624;28;20143;-78
2022/06/06 07:26:49;;;;;;;0.80;0.60;;;13.40;81.10;;;;;;5033781;28;20032;-78
2022/06/06 07:29:21;;;;;;;0.90;0.52;;;13.40;80.90;;;;;;5035178;28;20091;-80
2022/06/06 07:32:25;;;;;;;1.48;0.88;;;13.40;80.40;;;;;;5035648;28;20395;-81
2022/06/06 07:34:58;;;;;;;1.33;0.43;;;13.40;81.00;;;;;;5036440;28;20028;-86
2022/06/06 07:37:47;;;;;;;0.63;0.22;;;13.30;81.60;;;;;;5035788;28;20036;-85
2022/06/06 07:40:58;;;;;;;0.82;0.50;;;13.20;81.90;;;;;;5028942;28;20095;-81
2022/06/06 07:43:53;;;;;;;1.25;0.35;;;13.20;82.10;;;;;;5037500;28;20037;-79
2022/06/06 07:46:39;;;;;;;0.65;0.30;;;13.30;82.20;;;;;;5033472;28;20025;-80
2022/06/06 07:49:38;;;;;;;0.50;0.23;;;13.30;82.20;;;;;;5028770;28;20117;-86
2022/06/06 07:52:27;;;;;;;1.05;0.30;;;13.30;82.10;;;;;;5029648;28;20052;-89
2022/06/06 07:55:13;;;;;;;0.57;0.20;;;13.40;82.60;;;;;;5041113;28;20028;-85
2022/06/06 07:57:57;;;;;;;0.80;0.20;;;13.30;82.80;;;;;;5041322;28;20040;-77
2022/06/06 08:00:28;;;;;;;0.30;0.20;;;13.20;82.60;;;;;;5032971;28;20104;-79
2022/06/06 08:03:14;;;;;;;0.40;0.30;;;13.20;83.00;;;;;;5031730;28;20044;-78
2022/06/06 08:06:20;;;;;;;1.98;0.40;;;13.10;83.40;;;;;;5027836;28;20036;-81
2022/06/06 08:09:00;;;;;;;0.83;0.10;;;13.10;83.60;;;;;;5031008;28;20021;-79
2022/06/06 08:11:36;;;;;;;0.28;0.17;;;13.10;83.70;;;;;;5042852;28;20040;-83
2022/06/06 08:14:28;;;;;;;1.55;0.40;;;13.10;83.50;;;;;;5033221;28;20049;-85
2022/06/06 08:17:41;;;;;;;0.68;0.50;;;13.10;84.00;;;;;;5029066;28;20097;-86
2022/06/06 08:20:24;;;;;;;0.98;0.25;;;13.00;84.00;;;;;;5048907;28;20044;-86
2022/06/06 08:22:56;;;;;;;0.63;0.20;;;13.00;84.30;;;;;;5037198;28;20082;-84
2022/06/06 08:25:24;;;;;;;0.65;0.20;;;13.00;83.70;;;;;;5047409;28;20033;-77
2022/06/06 08:27:52;;;;;;;0.75;0.20;;;13.00;83.80;;;;;;5030863;28;20030;-83
2022/06/06 08:30:21;;;;;;;3.85;0.20;;;12.90;83.80;;;;;;5047122;28;20090;-80
2022/06/06 08:32:49;;;;;;;0.57;0.20;;;13.00;83.60;;;;;;5047186;28;20065;-81
2022/06/06 08:35:17;;;;;;;2.58;0.60;;;13.00;84.10;;;;;;5039657;28;20032;-82
2022/06/06 08:38:37;;;;;;;0.47;0.20;;;12.90;84.50;;;;;;5030437;28;20068;-81
2022/06/06 08:41:29;;;;;;;0.90;0.40;;;12.80;84.90;;;;;;5029381;28;20484;-82
2022/06/06 08:44:28;;;;;;;2.10;0.73;;;12.80;84.80;;;;;;5036203;28;20036;-83
2022/06/06 08:47:06;;;;;;;0.47;0.20;;;12.70;84.00;;;;;;5049744;28;20424;-84
2022/06/06 08:53:06;;;;;;;2.92;0.98;;;12.70;84.70;;;;;;5048492;28;20044;-82
2022/06/06 08:55:51;;;;;;;0.93;0.30;;;12.60;85.00;;;;;;5027117;28;20042;-84
2022/06/06 08:58:49;;;;;;;0.47;0.30;;;12.50;85.00;;;;;;5029851;28;20049;-82
2022/06/06 09:01:53;;;;;;;2.63;0.43;;;12.50;85.40;;;;;;5039642;28;20028;-83
2022/06/06 09:04:57;;;;;;;1.30;0.77;;;12.30;85.90;;;;;;5035835;28;20123;-81
2022/06/06 09:07:49;;;;;;;1.42;0.52;;;12.20;86.20;;;;;;5041125;28;20472;-81
2022/06/06 09:10:38;;;;;;;1.80;0.40;;;12.20;86.20;;;;;;5039026;28;20120;-82
2022/06/06 09:13:05;;;;;;;2.22;0.45;;;12.20;86.30;;;;;;5038223;28;20029;-80
2022/06/06 09:15:39;;;;;;;0.93;0.30;;;12.10;86.70;;;;;;5033138;28;20078;-83
2022/06/06 09:18:09;;;;;;;2.10;0.50;;;12.00;87.00;;;;;;5036389;28;20044;-82
2022/06/06 09:20:52;;;;;;;2.75;0.40;;;12.00;87.10;;;;;;5044424;28;20028;-81
2022/06/06 09:24:12;;;;;;;1.92;0.40;;;11.90;87.30;;;;;;5033630;28;20104;-81
2022/06/06 09:26:47;;;;;;;7.47;0.57;;;11.90;87.10;;;;;;5036913;28;20025;-76
2022/06/06 09:29:48;;;;;;;2.87;0.50;;;11.90;87.30;;;;;;5032678;28;20047;-81
2022/06/06 09:32:46;;;;;;;3.92;0.70;;;11.90;87.60;;;;;;5036089;28;20041;-81
2022/06/06 09:35:53;;;;;;;5.80;1.20;;;11.80;87.90;;;;;;5035014;28;20780;-80
2022/06/06 09:38:46;;;;;;;1.85;0.57;;;11.70;87.80;;;;;;5037199;28;20196;-77
2022/06/06 09:41:20;;;;;;;0.93;0.38;;;11.70;88.00;;;;;;5032386;28;20045;-81
2022/06/06 09:44:01;;;;;;;2.10;0.55;;;11.70;87.90;;;;;;5041001;28;20499;-83
2022/06/06 09:46:50;;;;;;;1.08;0.35;;;11.70;88.20;;;;;;5039944;28;20053;-83
2022/06/06 09:49:44;;;;;;;0.52;0.30;;;11.70;88.00;;;;;;5043008;28;20053;-84
2022/06/06 09:52:27;;;;;;;1.35;0.25;;;11.80;88.10;;;;;;5040331;28;20037;-82
2022/06/06 10:01:24;;;;;;;0.90;0.30;;;11.60;89.30;;;;;;5031542;28;20080;-81
2022/06/06 10:04:03;;;;;;;1.65;0.35;;;11.50;89.60;;;;;;5034325;28;20475;-81
2022/06/06 10:06:54;;;;;;;4.05;0.70;;;11.50;89.70;;;;;;5037168;28;20025;-80
2022/06/06 10:10:08;;;;;;;1.75;0.57;;;11.50;89.80;;;;;;5042621;28;20392;-80
2022/06/06 10:12:55;;;;;;;3.47;0.82;;;11.60;90.00;;;;;;5027917;28;20040;-81
2022/06/06 10:15:59;;;;;;;1.05;0.40;;;11.50;90.10;;;;;;5033936;28;20030;-82
2022/06/06 10:19:14;;;;;;;5.90;0.90;;;11.40;90.30;;;;;;5031383;28;20052;-82
2022/06/06 10:22:15;;;;;;;2.00;0.90;;;11.30;90.50;;;;;;5050156;28;20085;-82
2022/06/06 10:25:23;;;;;;;4.43;1.08;;;11.20;90.60;;;;;;5036570;28;20044;-81
2022/06/06 10:28:05;;;;;;;3.60;1.23;;;11.10;90.80;;;;;;5039097;28;20136;-81
2022/06/06 10:30:50;;;;;;;5.90;1.27;;;11.00;90.90;;;;;;5043320;28;20049;-81
2022/06/06 10:33:48;;;;;;;3.78;1.25;;;10.90;91.30;;;;;;5031556;28;20041;-80
2022/06/06 10:36:36;;;;;;;2.45;1.17;;;10.70;91.70;;;;;;5049715;28;20040;-79
2022/06/06 10:39:18;;;;;;;3.35;1.00;;;10.60;91.90;;;;;;5047375;28;20037;-79
2022/06/06 10:42:28;;;;;;;5.00;1.75;;;10.40;92.50;;;;;;5051904;28;20113;-81
2022/06/06 10:45:14;;;;;;;2.70;0.90;;;10.20;92.70;;;;;;5048712;28;20545;-80
2022/06/06 10:48:03;;;;;;;1.13;0.55;;;10.10;92.90;;;;;;5044079;28;20108;-81
2022/06/06 10:50:30;;;;;;;4.95;1.10;;;10.10;92.70;;;;;;5051589;28;20040;-80
2022/06/06 10:53:01;;;;;;;7.43;1.50;;;10.00;93.10;;;;;;5049016;28;20039;-80
2022/06/06 10:55:42;;;;;;;2.92;1.55;;;10.00;93.20;;;;;;5047416;28;20102;-80
2022/06/06 10:58:39;;;;;;;2.45;1.15;;;10.10;93.10;;;;;;5035190;28;20041;-80
2022/06/06 11:01:27;;;;;;;1.80;0.90;;;10.10;92.90;;;;;;5038869;28;20033;-79
2022/06/06 11:04:23;;;;;;;1.80;1.42;;;10.00;92.90;;;;;;5036783;28;20043;-82
2022/06/06 11:06:56;;;;;;;5.45;1.60;;;10.00;93.20;;;;;;5044344;28;20115;-80
2022/06/06 11:09:44;;;;;;;3.95;1.23;;;9.90;93.10;;;;;;5040203;28;20048;-82
2022/06/06 11:12:41;;;;;;;2.42;1.10;;;9.90;93.30;;;;;;5047597;28;20064;-79
2022/06/06 11:15:08;;;;;;;2.35;1.13;;;9.90;93.30;;;;;;5045918;28;20459;-79
2022/06/06 11:18:07;;;;;;;3.97;1.15;;;9.90;93.10;;;;;;5048242;28;20753;-81
2022/06/06 11:21:14;;;;;;;3.60;1.67;;;10.00;93.20;;;;;;5052538;28;20020;-81
2022/06/06 11:24:08;;;;;;;2.15;0.85;;;10.00;93.20;;;;;;5039484;28;20127;-79
2022/06/06 11:26:58;;;;;;;3.88;1.88;;;10.00;93.20;;;;;;5029909;28;20421;-80
2022/06/06 11:29:38;;;;;;;4.13;2.47;;;10.00;93.30;;;;;;5039287;28;20024;-80
2022/06/06 11:32:41;;;;;;;6.63;1.80;;;10.00;93.20;;;;;;5046932;28;20100;-79
2022/06/06 11:35:23;;;;;;;1.85;1.20;;;10.20;93.00;;;;;;5046541;28;20368;-78
2022/06/06 11:38:37;;;;;;;5.20;1.02;;;10.10;93.10;;;;;;5039486;28;20120;-79
2022/06/06 11:41:26;;;;;;;1.23;0.68;;;10.10;93.10;;;;;;5030644;28;20033;-79
2022/06/06 11:44:21;;;;;;;4.57;1.20;;;10.00;93.50;;;;;;5035516;28;20186;-79
2022/06/06 11:47:18;;;;;;;2.83;0.90;;;10.00;93.50;;;;;;5045719;28;20033;-78
2022/06/06 11:50:04;;;;;;;1.73;0.55;;;10.20;93.50;;;;;;5045689;28;20046;-84
2022/06/06 11:53:21;;;;;;;2.10;0.60;;;10.30;93.20;;;;;;5043150;28;20022;-80
2022/06/06 11:56:23;;;;;;;5.90;0.68;;;10.50;93.00;;;;;;4997909;28;20508;-78
2022/06/06 11:58:56;;;;;;;2.55;0.60;;;10.60;92.70;;;;;;5032216;28;20053;-77
2022/06/06 12:01:33;;;;;;;3.40;0.55;;;10.70;92.70;;;;;;5042201;28;20111;-79
2022/06/06 12:04:19;;;;;;;2.00;0.70;;;10.80;92.50;;;;;;5034134;28;20032;-77
2022/06/06 12:07:19;;;;;;;1.70;0.80;;;10.80;92.50;;;;;;5028522;28;20029;-76
2022/06/06 12:10:10;;;;;;;1.15;0.80;;;10.80;92.40;;;;;;5040441;28;20922;-78
2022/06/06 12:13:15;;;;;;;2.70;0.50;;;10.80;92.40;;;;;;5035812;28;20026;-79
2022/06/06 12:15:48;;;;;;;3.55;0.82;;;10.80;92.20;;;;;;5040741;28;20541;-78
2022/06/06 12:18:34;;;;;;;0.95;0.43;;;10.90;92.20;;;;;;5044635;28;20180;-78
2022/06/06 12:21:20;;;;;;;2.07;0.40;;;10.90;92.20;;;;;;5048982;28;20337;-77
2022/06/06 12:24:07;;;;;;;1.85;0.50;;;10.80;92.30;;;;;;5041209;28;20053;-79
2022/06/06 12:26:43;;;;;;;0.17;0.13;;;10.80;92.20;;;;;;5046671;28;20403;-80
2022/06/06 12:29:38;;;;;;;4.22;0.55;;;10.80;92.20;;;;;;5044375;28;20040;-80
2022/06/06 12:32:28;;;;;;;1.30;0.50;;;10.90;91.90;;;;;;5042561;28;20128;-79
2022/06/06 12:35:04;;;;;;;2.88;0.40;;;11.00;91.50;;;;;;5044249;28;20032;-82
2022/06/06 12:37:52;;;;;;;2.50;0.52;;;11.10;91.50;;;;;;5050201;28;20025;-79
2022/06/06 12:40:29;;;;;;;1.42;0.52;;;11.10;91.60;;;;;;5040512;28;20353;-78
2022/06/06 12:43:05;;;;;;;4.20;0.70;;;11.10;91.60;;;;;;5029931;28;20017;-78
2022/06/06 12:46:23;;;;;;;3.08;0.57;;;11.00;91.80;;;;;;5045664;28;20036;-77
2022/06/06 12:48:49;;;;;;;;;;;10.80;91.70;;;;;;5035089;28;20125;-77
2022/06/06 12:51:39;;;;;;;;;;;10.80;91.80;;;;;;5030481;28;20286;-75
2022/06/06 12:54:19;;;;;;;1.23;0.63;;;10.70;91.80;;;;;;5037342;28;19974;-80
2022/06/06 12:56:50;;;;;;;2.65;1.02;;;10.70;91.90;;;;;;5029975;28;20496;-80
2022/06/06 12:59:26;;;;;;;1.25;0.70;;;10.70;91.90;;;;;;5035461;28;20047;-79
2022/06/06 13:02:22;;;;;;;3.53;0.60;;;10.70;92.40;;;;;;5051819;28;20068;-82
2022/06/06 13:05:02;;;;;;;4.15;0.80;;;10.60;92.40;;;;;;5040417;28;20025;-79
2022/06/06 13:08:01;;;;;;;0.63;0.43;;;10.50;92.20;;;;;;5053694;28;20188;-77
2022/06/06 13:10:48;;;;;;;1.95;0.70;;;10.40;92.30;;;;;;5039891;28;20510;-77
2022/06/06 13:13:44;;;;;;;3.08;0.65;;;10.30;92.40;;;;;;5050888;28;20025;-84
2022/06/06 13:16:32;;;;;;;1.90;0.80;;;10.30;92.70;;;;;;5034107;28;20022;-76
2022/06/06 13:19:20;;;;;;;1.90;0.60;;;10.30;92.70;;;;;;5040499;28;20415;-78
2022/06/06 13:22:03;;;;;;;1.15;0.30;;;10.30;92.70;;;;;;5039449;28;20025;-78
2022/06/06 13:24:53;;;;;;;4.78;0.52;;;10.10;93.00;;;;;;5045425;28;20025;-78
2022/06/06 13:27:52;;;;;;;5.05;1.55;;;10.00;93.50;;;;;;5053138;28;20071;-78
2022/06/06 13:30:21;;;;;;;4.60;1.27;;;10.10;93.30;;;;;;5044451;28;20037;-79
2022/06/06 13:33:19;;;;;;;3.90;1.20;;;10.20;93.20;;;;;;5049198;28;20028;-78
2022/06/06 13:36:01;;;;;;;5.15;1.08;;;10.20;93.70;;;;;;5032561;28;20029;-79
2022/06/06 13:39:01;;;;;;;2.80;0.77;;;10.10;93.60;;;;;;5040327;28;20601;-79
2022/06/06 13:42:04;;;;;;;3.92;0.70;;;10.10;94.30;;;;;;5050798;28;20033;-80
2022/06/06 13:44:41;;;;;;;3.25;0.82;;;9.90;94.30;;;;;;5037682;28;20050;-81
2022/06/06 13:47:42;;;;;;;1.75;0.65;;;9.90;94.50;;;;;;5031574;28;20684;-78
2022/06/06 13:50:53;;;;;;;3.90;0.47;;;9.80;94.60;;;;;;5047539;28;20044;-80
2022/06/06 13:53:33;;;;;;;0.85;0.30;;;9.70;94.80;;;;;;5051282;28;20450;-81
2022/06/06 13:56:31;;;;;;;2.33;0.32;;;9.60;94.90;;;;;;5033196;28;20033;-79
2022/06/06 13:59:11;;;;;;;2.17;0.38;;;9.40;95.10;;;;;;5029891;28;20045;-80
2022/06/06 14:01:53;;;;;;;0.85;0.40;;;9.30;95.60;;;;;;5031633;28;20104;-77
2022/06/06 14:04:55;;;;;;;1.70;0.60;;;9.20;95.70;;;;;;5029558;28;20052;-79
2022/06/06 14:07:58;;;;;;;1.23;0.40;;;9.10;95.80;;;;;;5031495;28;20458;-80
2022/06/06 14:10:43;;;;;;;2.28;0.30;;;9.10;96.10;;;;;;5046721;28;20031;-82
2022/06/06 14:13:25;;;;;;;2.38;0.40;;;9.10;95.90;;;;;;5031252;28;20476;-81
2022/06/06 14:15:53;;;;;;;4.40;0.40;;;9.10;95.80;;;;;;5039727;28;20025;-82
2022/06/06 14:18:34;;;;;;;0.60;0.30;;;9.20;95.90;;;;;;5047693;28;20596;-80
2022/06/06 14:21:03;;;;;;;2.15;0.50;;;9.30;95.40;;;;;;5036493;28;20156;-79
2022/06/06 14:23:36;;;;;;;0.40;0.20;;;9.40;95.40;;;;;;5033411;28;20024;-79
2022/06/06 14:26:14;;;;;;;4.38;0.40;;;9.50;95.20;;;;;;5052308;28;20036;-80
2022/06/06 14:28:43;;;;;;;3.75;0.47;;;9.70;95.00;;;;;;5039837;28;20121;-80
2022/06/06 14:31:27;;;;;;;2.83;0.77;;;9.80;94.90;;;;;;5036071;28;20030;-79
2022/06/06 14:34:01;;;;;;;2.97;0.40;;;9.80;94.90;;;;;;5032570;28;20040;-79
2022/06/06 14:36:29;;;;;;;0.88;0.25;;;10.00;94.70;;;;;;5030758;28;20037;-76
2022/06/06 14:39:03;;;;;;;3.30;0.65;;;10.10;94.60;;;;;;5040713;28;20036;-79
2022/06/06 14:41:36;;;;;;;1.13;0.35;;;10.00;94.50;;;;;;5036590;28;20172;-78